sensor_id;sensor_type;location;lat;lon;timestamp;pressure;altitude;pressure_sealevel;temperature;humidity
29549;BME280;16487;53.094;8.800;2022-09-25T00:01:35;101994.94;;;12.20;100.00
29549;BME280;16487;53.094;8.800;2022-09-25T00:04:03;102006.09;;;12.20;100.00
29549;BME280;16487;53.094;8.800;2022-09-25T00:06:30;102017.28;;;12.20;100.00
29549;BME280;16487;53.094;8.800;2022-09-25T00:08:58;102023.69;;;12.20;100.00
29549;BME280;16487;53.094;8.800;2022-09-25T00:11:28;102037.59;;;12.24;100.00
29549;BME280;16487;53.094;8.800;2022-09-25T00:13:57;102049.91;;;12.26;100.00
29549;BME280;16487;53.094;8.800;2022-09-25T00:16:26;102060.34;;;12.26;100.00
29549;BME280;16487;53.094;8.800;2022-09-25T00:18:55;102064.31;;;12.25;100.00
29549;BME280;16487;53.094;8.800;2022-09-25T00:21:22;102071.44;;;12.29;100.00
29549;BME280;16487;53.094;8.800;2022-09-25T00:23:50;102081.03;;;12.28;100.00
29549;BME280;16487;53.094;8.800;2022-09-25T00:26:17;102090.72;;;12.24;100.00
29549;BME280;16487;53.094;8.800;2022-09-25T00:28:44;102093.50;;;12.24;100.00
29549;BME280;16487;53.094;8.800;2022-09-25T00:31:18;102106.63;;;12.27;100.00
29549;BME280;16487;53.094;8.800;2022-09-25T00:33:46;102119.84;;;12.23;100.00
29549;BME280;16487;53.094;8.800;2022-09-25T00:36:13;102128.66;;;12.21;100.00
29549;BME280;16487;53.094;8.800;2022-09-25T00:38:40;102129.84;;;12.24;100.00
29549;BME280;16487;53.094;8.800;2022-09-25T00:41:08;102144.97;;;12.26;100.00
29549;BME280;16487;53.094;8.800;2022-09-25T00:43:38;102145.41;;;12.25;100.00
29549;BME280;16487;53.094;8.800;2022-09-25T00:46:09;102161.31;;;12.28;100.00
29549;BME280;16487;53.094;8.800;2022-09-25T00:48:46;102165.38;;;12.23;100.00
29549;BME280;16487;53.094;8.800;2022-09-25T00:51:15;102176.00;;;12.35;100.00
29549;BME280;16487;53.094;8.800;2022-09-25T00:53:44;102191.25;;;12.31;100.00
29549;BME280;16487;53.094;8.800;2022-09-25T00:56:12;102197.63;;;12.31;100.00
29549;BME280;16487;53.094;8.800;2022-09-25T00:58:41;102203.97;;;12.35;100.00
29549;BME280;16487;53.094;8.800;2022-09-25T01:01:09;102216.75;;;12.33;100.00
29549;BME280;16487;53.094;8.800;2022-09-25T01:03:40;102222.34;;;12.33;100.00
29549;BME280;16487;53.094;8.800;2022-09-25T01:06:08;102231.16;;;12.31;100.00
29549;BME280;16487;53.094;8.800;2022-09-25T01:08:36;102230.41;;;12.31;100.00
29549;BME280;16487;53.094;8.800;2022-09-25T01:11:05;102235.19;;;12.30;100.00
29549;BME280;16487;53.094;8.800;2022-09-25T01:13:32;102246.78;;;12.29;100.00
29549;BME280;16487;53.094;8.800;2022-09-25T01:16:07;102262.69;;;12.35;100.00
29549;BME280;16487;53.094;8.800;2022-09-25T01:18:51;102260.72;;;12.32;100.00
29549;BME280;16487;53.094;8.800;2022-09-25T01:21:33;102263.09;;;12.34;100.00
29549;BME280;16487;53.094;8.800;2022-09-25T01:27:24;102252.75;;;12.31;100.00
29549;BME280;16487;53.094;8.800;2022-09-25T01:30:00;102253.09;;;12.33;100.00
29549;BME280;16487;53.094;8.800;2022-09-25T01:32:33;102254.75;;;12.30;100.00
29549;BME280;16487;53.094;8.800;2022-09-25T01:35:05;102247.94;;;12.31;100.00
29549;BME280;16487;53.094;8.800;2022-09-25T01:37:38;102239.16;;;12.29;100.00
29549;BME280;16487;53.094;8.800;2022-09-25T01:40:12;102251.53;;;12.32;100.00
29549;BME280;16487;53.094;8.800;2022-09-25T01:42:47;102253.09;;;12.33;100.00
29549;BME280;16487;53.094;8.800;2022-09-25T01:45:21;102257.50;;;12.34;100.00
29549;BME280;16487;53.094;8.800;2022-09-25T01:47:50;102259.06;;;12.35;100.00
29549;BME280;16487;53.094;8.800;2022-09-25T01:50:24;102263.06;;;12.37;100.00
29549;BME280;16487;53.094;8.800;2022-09-25T01:52:56;102267.84;;;12.37;100.00
29549;BME280;16487;53.094;8.800;2022-09-25T01:55:29;102269.78;;;12.40;100.00
29549;BME280;16487;53.094;8.800;2022-09-25T01:58:04;102279.41;;;12.39;100.00
29549;BME280;16487;53.094;8.800;2022-09-25T02:00:38;102290.56;;;12.42;100.00
29549;BME280;16487;53.094;8.800;2022-09-25T02:03:10;102301.75;;;12.42;100.00
29549;BME280;16487;53.094;8.800;2022-09-25T02:05:41;102307.75;;;12.41;100.00
29549;BME280;16487;53.094;8.800;2022-09-25T02:08:14;102314.53;;;12.40;100.00
29549;BME280;16487;53.094;8.800;2022-09-25T02:10:46;102330.13;;;12.41;100.00
29549;BME280;16487;53.094;8.800;2022-09-25T02:13:18;102333.31;;;12.43;100.00
29549;BME280;16487;53.094;8.800;2022-09-25T02:15:50;102357.25;;;12.44;100.00
29549;BME280;16487;53.094;8.800;2022-09-25T02:18:19;102368.44;;;12.44;100.00
29549;BME280;16487;53.094;8.800;2022-09-25T02:20:50;102379.59;;;12.47;100.00
29549;BME280;16487;53.094;8.800;2022-09-25T02:23:23;102398.69;;;12.52;100.00
29549;BME280;16487;53.094;8.800;2022-09-25T02:25:56;102409.03;;;12.55;100.00
29549;BME280;16487;53.094;8.800;2022-09-25T02:28:26;102401.16;;;12.47;100.00
29549;BME280;16487;53.094;8.800;2022-09-25T02:30:56;102397.94;;;12.48;100.00
29549;BME280;16487;53.094;8.800;2022-09-25T02:33:26;102391.59;;;12.44;100.00
29549;BME280;16487;53.094;8.800;2022-09-25T02:35:53;102383.59;;;12.46;100.00
29549;BME280;16487;53.094;8.800;2022-09-25T02:38:20;102369.97;;;12.48;100.00
29549;BME280;16487;53.094;8.800;2022-09-25T02:40:52;102338.81;;;12.50;100.00
29549;BME280;16487;53.094;8.800;2022-09-25T02:43:31;102310.88;;;12.46;100.00
29549;BME280;16487;53.094;8.800;2022-09-25T02:46:05;102274.88;;;12.48;100.00
29549;BME280;16487;53.094;8.800;2022-09-25T02:48:40;102247.72;;;12.49;100.00
29549;BME280;16487;53.094;8.800;2022-09-25T02:51:17;102202.97;;;12.49;100.00
29549;BME280;16487;53.094;8.800;2022-09-25T02:53:50;102171.78;;;12.50;100.00
29549;BME280;16487;53.094;8.800;2022-09-25T02:56:24;102143.81;;;12.50;100.00
29549;BME280;16487;53.094;8.800;2022-09-25T02:58:56;102122.25;;;12.51;100.00
29549;BME280;16487;53.094;8.800;2022-09-25T03:01:28;102098.31;;;12.50;100.00
29549;BME280;16487;53.094;8.800;2022-09-25T03:03:59;102083.09;;;12.51;100.00
29549;BME280;16487;53.094;8.800;2022-09-25T03:06:29;102076.63;;;12.54;100.00
29549;BME280;16487;53.094;8.800;2022-09-25T03:08:57;102066.19;;;12.58;100.00
29549;BME280;16487;53.094;8.800;2022-09-25T03:11:25;102051.72;;;12.63;100.00
29549;BME280;16487;53.094;8.800;2022-09-25T03:13:57;102029.03;;;12.57;100.00
29549;BME280;16487;53.094;8.800;2022-09-25T03:16:30;102013.91;;;12.55;100.00
29549;BME280;16487;53.094;8.800;2022-09-25T03:19:00;102012.31;;;12.54;100.00
29549;BME280;16487;53.094;8.800;2022-09-25T03:21:27;102021.06;;;12.56;100.00
29549;BME280;16487;53.094;8.800;2022-09-25T03:23:55;102009.53;;;12.54;100.00
29549;BME280;16487;53.094;8.800;2022-09-25T03:26:22;102009.16;;;12.52;100.00
29549;BME280;16487;53.094;8.800;2022-09-25T03:28:50;102014.41;;;12.50;100.00
29549;BME280;16487;53.094;8.800;2022-09-25T03:31:17;102020.81;;;12.47;100.00
29549;BME280;16487;53.094;8.800;2022-09-25T03:33:46;102023.94;;;12.52;100.00
29549;BME280;16487;53.094;8.800;2022-09-25T03:36:15;102018.41;;;12.49;100.00
29549;BME280;16487;53.094;8.800;2022-09-25T03:38:44;102016.88;;;12.44;100.00
29549;BME280;16487;53.094;8.800;2022-09-25T03:41:13;102016.09;;;12.44;100.00
29549;BME280;16487;53.094;8.800;2022-09-25T03:43:42;102020.88;;;12.43;100.00
29549;BME280;16487;53.094;8.800;2022-09-25T03:46:11;102011.72;;;12.43;100.00
29549;BME280;16487;53.094;8.800;2022-09-25T03:48:40;102012.06;;;12.45;100.00
29549;BME280;16487;53.094;8.800;2022-09-25T03:51:09;102013.78;;;12.39;100.00
29549;BME280;16487;53.094;8.800;2022-09-25T03:53:38;102015.00;;;12.38;100.00
29549;BME280;16487;53.094;8.800;2022-09-25T03:56:08;102011.84;;;12.36;100.00
29549;BME280;16487;53.094;8.800;2022-09-25T03:58:37;102013.03;;;12.35;100.00
29549;BME280;16487;53.094;8.800;2022-09-25T04:01:05;102022.66;;;12.34;100.00
29549;BME280;16487;53.094;8.800;2022-09-25T04:03:33;102016.69;;;12.32;100.00
29549;BME280;16487;53.094;8.800;2022-09-25T04:06:01;102018.75;;;12.28;100.00
29549;BME280;16487;53.094;8.800;2022-09-25T04:08:32;102024.06;;;12.22;100.00
29549;BME280;16487;53.094;8.800;2022-09-25T04:11:00;102026.59;;;12.13;100.00
29549;BME280;16487;53.094;8.800;2022-09-25T04:13:29;102036.22;;;12.09;100.00
29549;BME280;16487;53.094;8.800;2022-09-25T04:15:58;102040.72;;;12.03;100.00
29549;BME280;16487;53.094;8.800;2022-09-25T04:18:26;102049.53;;;12.01;100.00
29549;BME280;16487;53.094;8.800;2022-09-25T04:20:54;102062.78;;;11.94;100.00
29549;BME280;16487;53.094;8.800;2022-09-25T04:23:21;102074.81;;;11.91;100.00
29549;BME280;16487;53.094;8.800;2022-09-25T04:25:50;102097.97;;;11.91;100.00
29549;BME280;16487;53.094;8.800;2022-09-25T04:28:17;102123.88;;;11.92;100.00
29549;BME280;16487;53.094;8.800;2022-09-25T04:30:44;102129.59;;;11.81;100.00
29549;BME280;16487;53.094;8.800;2022-09-25T04:33:12;102137.22;;;11.81;100.00
29549;BME280;16487;53.094;8.800;2022-09-25T04:35:40;102156.44;;;11.75;100.00
29549;BME280;16487;53.094;8.800;2022-09-25T04:38:08;102183.94;;;11.77;100.00
29549;BME280;16487;53.094;8.800;2022-09-25T04:40:35;102209.56;;;11.68;100.00
29549;BME280;16487;53.094;8.800;2022-09-25T04:43:05;102222.28;;;11.73;100.00
29549;BME280;16487;53.094;8.800;2022-09-25T04:45:34;102242.22;;;11.75;100.00
29549;BME280;16487;53.094;8.800;2022-09-25T04:48:02;102263.44;;;11.69;100.00
29549;BME280;16487;53.094;8.800;2022-09-25T04:50:30;102282.22;;;11.65;100.00
29549;BME280;16487;53.094;8.800;2022-09-25T04:53:01;102305.38;;;11.65;100.00
29549;BME280;16487;53.094;8.800;2022-09-25T04:55:28;102322.88;;;11.62;100.00
29549;BME280;16487;53.094;8.800;2022-09-25T04:57:58;102346.03;;;11.63;100.00
29549;BME280;16487;53.094;8.800;2022-09-25T05:00:29;102372.44;;;11.54;100.00
29549;BME280;16487;53.094;8.800;2022-09-25T05:02:57;102397.19;;;11.52;100.00
29549;BME280;16487;53.094;8.800;2022-09-25T05:05:24;102423.91;;;11.53;100.00
29549;BME280;16487;53.094;8.800;2022-09-25T05:07:52;102439.50;;;11.47;100.00
29549;BME280;16487;53.094;8.800;2022-09-25T05:10:20;102465.81;;;11.46;100.00
29549;BME280;16487;53.094;8.800;2022-09-25T05:12:50;102494.91;;;11.52;99.29
29549;BME280;16487;53.094;8.800;2022-09-25T05:15:20;102516.88;;;11.50;99.21
29549;BME280;16487;53.094;8.800;2022-09-25T05:17:48;102532.06;;;11.46;99.28
29549;BME280;16487;53.094;8.800;2022-09-25T05:20:16;102551.22;;;11.40;98.95
29549;BME280;16487;53.094;8.800;2022-09-25T05:22:43;102581.94;;;11.40;98.61
29549;BME280;16487;53.094;8.800;2022-09-25T05:25:10;102603.88;;;11.38;98.34
29549;BME280;16487;53.094;8.800;2022-09-25T05:27:37;102615.06;;;11.31;98.46
29549;BME280;16487;53.094;8.800;2022-09-25T05:30:06;102649.38;;;11.25;97.90
29549;BME280;16487;53.094;8.800;2022-09-25T05:32:34;102672.88;;;11.20;96.84
29549;BME280;16487;53.094;8.800;2022-09-25T05:35:03;102716.38;;;11.28;96.02
29549;BME280;16487;53.094;8.800;2022-09-25T05:37:32;102737.09;;;11.20;96.07
29549;BME280;16487;53.094;8.800;2022-09-25T05:39:59;102761.81;;;11.18;95.86
29549;BME280;16487;53.094;8.800;2022-09-25T05:42:29;102780.97;;;11.13;95.61
29549;BME280;16487;53.094;8.800;2022-09-25T05:44:56;102800.91;;;11.15;94.77
29549;BME280;16487;53.094;8.800;2022-09-25T05:47:23;102826.41;;;11.17;94.06
29549;BME280;16487;53.094;8.800;2022-09-25T05:49:50;102837.56;;;11.20;93.45
29549;BME280;16487;53.094;8.800;2022-09-25T05:52:19;102862.31;;;11.25;92.68
29549;BME280;16487;53.094;8.800;2022-09-25T05:54:46;102884.66;;;11.32;92.11
29549;BME280;16487;53.094;8.800;2022-09-25T05:57:14;102899.00;;;11.34;91.44
29549;BME280;16487;53.094;8.800;2022-09-25T05:59:41;102916.59;;;11.38;90.90
29549;BME280;16487;53.094;8.800;2022-09-25T06:02:09;102935.34;;;11.48;89.86
29549;BME280;16487;53.094;8.800;2022-09-25T06:04:37;102949.31;;;11.52;89.47
29549;BME280;16487;53.094;8.800;2022-09-25T06:07:04;102962.88;;;11.53;89.38
29549;BME280;16487;53.094;8.800;2022-09-25T06:09:33;102962.09;;;11.49;89.34
29549;BME280;16487;53.094;8.800;2022-09-25T06:12:00;102970.44;;;11.42;89.38
29549;BME280;16487;53.094;8.800;2022-09-25T06:14:27;102990.00;;;11.42;89.04
29549;BME280;16487;53.094;8.800;2022-09-25T06:16:55;102990.78;;;11.43;88.81
29549;BME280;16487;53.094;8.800;2022-09-25T06:19:22;103002.72;;;11.36;88.81
29549;BME280;16487;53.094;8.800;2022-09-25T06:21:49;103001.91;;;11.36;88.76
29549;BME280;16487;53.094;8.800;2022-09-25T06:24:16;103015.09;;;11.35;88.85
29549;BME280;16487;53.094;8.800;2022-09-25T06:26:45;103021.06;;;11.30;88.91
29549;BME280;16487;53.094;8.800;2022-09-25T06:29:12;103026.66;;;11.30;88.91
29549;BME280;16487;53.094;8.800;2022-09-25T06:31:40;103046.56;;;11.25;88.99
29549;BME280;16487;53.094;8.800;2022-09-25T06:34:07;103047.75;;;11.24;88.95
29549;BME280;16487;53.094;8.800;2022-09-25T06:36:34;103052.91;;;11.22;89.30
29549;BME280;16487;53.094;8.800;2022-09-25T06:39:02;103068.13;;;11.28;88.70
29549;BME280;16487;53.094;8.800;2022-09-25T06:41:29;103078.53;;;11.38;88.23
29549;BME280;16487;53.094;8.800;2022-09-25T06:43:58;103075.31;;;11.36;88.38
29549;BME280;16487;53.094;8.800;2022-09-25T06:46:25;103097.63;;;11.33;88.29
29549;BME280;16487;53.094;8.800;2022-09-25T06:48:53;103089.66;;;11.31;88.66
29549;BME280;16487;53.094;8.800;2022-09-25T06:51:21;103080.09;;;11.32;88.71
29549;BME280;16487;53.094;8.800;2022-09-25T06:53:51;103094.50;;;11.41;88.22
29549;BME280;16487;53.094;8.800;2022-09-25T06:56:18;103092.91;;;11.40;88.21
29549;BME280;16487;53.094;8.800;2022-09-25T06:58:46;103104.09;;;11.44;88.08
29549;BME280;16487;53.094;8.800;2022-09-25T07:01:15;103111.25;;;11.45;88.26
29549;BME280;16487;53.094;8.800;2022-09-25T07:03:42;103099.31;;;11.48;87.98
29549;BME280;16487;53.094;8.800;2022-09-25T07:06:11;103104.94;;;11.58;87.78
29549;BME280;16487;53.094;8.800;2022-09-25T07:08:39;103111.78;;;11.65;87.52
29549;BME280;16487;53.094;8.800;2022-09-25T07:11:06;103102.59;;;11.64;87.87
29549;BME280;16487;53.094;8.800;2022-09-25T07:13:34;103110.59;;;11.69;87.68
29549;BME280;16487;53.094;8.800;2022-09-25T07:16:04;103090.69;;;11.78;87.66
29549;BME280;16487;53.094;8.800;2022-09-25T07:18:33;103078.75;;;11.88;87.78
29549;BME280;16487;53.094;8.800;2022-09-25T07:21:03;103050.78;;;11.95;88.37
29549;BME280;16487;53.094;8.800;2022-09-25T07:23:30;103030.47;;;12.08;88.05
29549;BME280;16487;53.094;8.800;2022-09-25T07:26:03;103003.69;;;12.11;88.74
29549;BME280;16487;53.094;8.800;2022-09-25T07:28:31;102998.91;;;12.22;88.58
29549;BME280;16487;53.094;8.800;2022-09-25T07:30:58;102958.16;;;12.31;89.10
29549;BME280;16487;53.094;8.800;2022-09-25T07:33:36;102916.19;;;12.49;89.51
29549;BME280;16487;53.094;8.800;2022-09-25T07:36:04;102865.38;;;12.61;90.53
29549;BME280;16487;53.094;8.800;2022-09-25T07:38:31;102799.78;;;12.76;91.65
29549;BME280;16487;53.094;8.800;2022-09-25T07:40:59;102722.50;;;12.89;93.70
29549;BME280;16487;53.094;8.800;2022-09-25T07:43:26;102642.84;;;13.01;96.24
29549;BME280;16487;53.094;8.800;2022-09-25T07:45:53;102546.84;;;13.07;100.00
29549;BME280;16487;53.094;8.800;2022-09-25T07:48:20;102456.41;;;13.10;100.00
29549;BME280;16487;53.094;8.800;2022-09-25T07:50:49;102393.75;;;13.31;100.00
29549;BME280;16487;53.094;8.800;2022-09-25T07:53:16;102342.41;;;13.37;100.00
29549;BME280;16487;53.094;8.800;2022-09-25T07:55:44;102297.44;;;13.48;100.00
29549;BME280;16487;53.094;8.800;2022-09-25T07:58:12;102253.78;;;13.50;100.00
29549;BME280;16487;53.094;8.800;2022-09-25T08:00:39;102206.16;;;13.50;100.00
29549;BME280;16487;53.094;8.800;2022-09-25T08:03:07;102155.44;;;13.64;100.00
29549;BME280;16487;53.094;8.800;2022-09-25T08:05:35;102091.22;;;13.73;100.00
29549;BME280;16487;53.094;8.800;2022-09-25T08:08:04;102017.53;;;13.76;100.00
29549;BME280;16487;53.094;8.800;2022-09-25T08:10:31;101942.44;;;13.68;100.00
29549;BME280;16487;53.094;8.800;2022-09-25T08:12:59;101906.47;;;13.82;100.00
29549;BME280;16487;53.094;8.800;2022-09-25T08:15:26;101847.44;;;13.90;100.00
29549;BME280;16487;53.094;8.800;2022-09-25T08:17:53;101787.31;;;14.07;100.00
29549;BME280;16487;53.094;8.800;2022-09-25T08:20:21;101734.81;;;14.23;100.00
29549;BME280;16487;53.094;8.800;2022-09-25T08:22:52;101687.91;;;14.24;100.00
29549;BME280;16487;53.094;8.800;2022-09-25T08:25:21;101639.03;;;14.25;100.00
29549;BME280;16487;53.094;8.800;2022-09-25T08:27:48;101592.84;;;14.42;100.00
29549;BME280;16487;53.094;8.800;2022-09-25T08:30:15;101546.38;;;14.41;100.00
29549;BME280;16487;53.094;8.800;2022-09-25T08:32:42;101515.06;;;14.55;100.00
29549;BME280;16487;53.094;8.800;2022-09-25T08:35:09;101481.16;;;14.62;100.00
29549;BME280;16487;53.094;8.800;2022-09-25T08:37:39;101451.28;;;14.68;100.00
29549;BME280;16487;53.094;8.800;2022-09-25T08:40:15;101420.16;;;14.97;100.00
29549;BME280;16487;53.094;8.800;2022-09-25T08:42:46;101402.13;;;15.28;100.00
29549;BME280;16487;53.094;8.800;2022-09-25T08:45:24;101381.47;;;15.13;100.00
29549;BME280;16487;53.094;8.800;2022-09-25T08:47:53;101373.19;;;14.88;100.00
29549;BME280;16487;53.094;8.800;2022-09-25T08:50:23;101363.06;;;14.90;100.00
29549;BME280;16487;53.094;8.800;2022-09-25T08:52:54;101373.31;;;14.84;100.00
29549;BME280;16487;53.094;8.800;2022-09-25T08:55:26;101370.38;;;15.19;100.00
29549;BME280;16487;53.094;8.800;2022-09-25T08:57:55;101358.28;;;15.31;100.00
29549;BME280;16487;53.094;8.800;2022-09-25T09:00:23;101355.06;;;15.11;100.00
29549;BME280;16487;53.094;8.800;2022-09-25T09:02:52;101352.19;;;15.02;100.00
29549;BME280;16487;53.094;8.800;2022-09-25T09:05:23;101354.59;;;15.12;100.00
29549;BME280;16487;53.094;8.800;2022-09-25T09:07:54;101351.84;;;15.21;100.00
29549;BME280;16487;53.094;8.800;2022-09-25T09:10:29;101348.56;;;15.44;100.00
29549;BME280;16487;53.094;8.800;2022-09-25T09:13:08;101347.16;;;15.49;100.00
29549;BME280;16487;53.094;8.800;2022-09-25T09:15:43;101337.72;;;15.34;100.00
29549;BME280;16487;53.094;8.800;2022-09-25T09:18:20;101339.97;;;15.17;100.00
29549;BME280;16487;53.094;8.800;2022-09-25T09:20:51;101340.47;;;15.25;100.00
29549;BME280;16487;53.094;8.800;2022-09-25T09:23:21;101342.44;;;15.15;100.00
29549;BME280;16487;53.094;8.800;2022-09-25T09:25:57;101338.81;;;15.06;100.00
29549;BME280;16487;53.094;8.800;2022-09-25T09:28:59;101340.22;;;15.01;100.00
29549;BME280;16487;53.094;8.800;2022-09-25T09:31:31;101335.41;;;15.11;100.00
29549;BME280;16487;53.094;8.800;2022-09-25T09:34:20;101337.75;;;15.12;100.00
29549;BME280;16487;53.094;8.800;2022-09-25T09:37:16;101334.00;;;15.06;100.00
29549;BME280;16487;53.094;8.800;2022-09-25T09:39:57;101335.69;;;15.34;100.00
29549;BME280;16487;53.094;8.800;2022-09-25T09:42:41;101335.09;;;15.79;100.00
29549;BME280;16487;53.094;8.800;2022-09-25T09:45:19;101327.28;;;15.74;100.00
29549;BME280;16487;53.094;8.800;2022-09-25T09:47:53;101317.75;;;15.71;100.00
29549;BME280;16487;53.094;8.800;2022-09-25T09:50:31;101328.91;;;15.53;100.00
29549;BME280;16487;53.094;8.800;2022-09-25T09:53:16;101328.69;;;15.78;100.00
29549;BME280;16487;53.094;8.800;2022-09-25T09:55:52;101312.84;;;16.48;100.00
29549;BME280;16487;53.094;8.800;2022-09-25T09:58:22;101314.22;;;16.52;100.00
29549;BME280;16487;53.094;8.800;2022-09-25T10:00:54;101312.41;;;17.09;100.00
29549;BME280;16487;53.094;8.800;2022-09-25T10:03:24;101310.78;;;17.91;100.00
29549;BME280;16487;53.094;8.800;2022-09-25T10:05:56;101318.56;;;17.96;100.00
29549;BME280;16487;53.094;8.800;2022-09-25T10:08:25;101305.38;;;17.04;100.00
29549;BME280;16487;53.094;8.800;2022-09-25T10:10:52;101312.75;;;17.76;100.00
29549;BME280;16487;53.094;8.800;2022-09-25T10:13:22;101302.31;;;17.91;100.00
29549;BME280;16487;53.094;8.800;2022-09-25T10:15:55;101299.81;;;18.32;100.00
29549;BME280;16487;53.094;8.800;2022-09-25T10:18:27;101298.84;;;18.35;100.00
29549;BME280;16487;53.094;8.800;2022-09-25T10:21:00;101299.28;;;19.99;100.00
29549;BME280;16487;53.094;8.800;2022-09-25T10:23:34;101289.84;;;20.07;100.00
29549;BME280;16487;53.094;8.800;2022-09-25T10:26:22;101292.47;;;19.36;100.00
29549;BME280;16487;53.094;8.800;2022-09-25T10:28:50;101292.06;;;20.38;100.00
29549;BME280;16487;53.094;8.800;2022-09-25T10:31:19;101286.88;;;21.81;100.00
29549;BME280;16487;53.094;8.800;2022-09-25T10:33:58;101285.63;;;19.77;100.00
29549;BME280;16487;53.094;8.800;2022-09-25T10:36:39;101294.97;;;20.03;100.00
29549;BME280;16487;53.094;8.800;2022-09-25T10:39:25;101292.09;;;18.85;100.00
29549;BME280;16487;53.094;8.800;2022-09-25T10:42:36;101288.47;;;19.28;100.00
29549;BME280;16487;53.094;8.800;2022-09-25T10:45:28;101294.41;;;18.43;100.00
29549;BME280;16487;53.094;8.800;2022-09-25T10:47:57;101298.03;;;18.19;100.00
29549;BME280;16487;53.094;8.800;2022-09-25T10:50:25;101305.41;;;17.46;100.00
29549;BME280;16487;53.094;8.800;2022-09-25T10:52:54;101298.72;;;17.91;100.00
29549;BME280;16487;53.094;8.800;2022-09-25T10:55:24;101293.03;;;17.76;100.00
29549;BME280;16487;53.094;8.800;2022-09-25T10:57:56;101292.84;;;18.42;100.00
29549;BME280;16487;53.094;8.800;2022-09-25T11:00:25;101280.75;;;18.26;100.00
29549;BME280;16487;53.094;8.800;2022-09-25T11:02:55;101305.31;;;17.64;100.00
29549;BME280;16487;53.094;8.800;2022-09-25T11:05:27;101305.94;;;17.59;100.00
29549;BME280;16487;53.094;8.800;2022-09-25T11:07:56;101310.91;;;16.90;100.00
29549;BME280;16487;53.094;8.800;2022-09-25T11:10:27;101311.72;;;16.36;100.00
29549;BME280;16487;53.094;8.800;2022-09-25T11:12:56;101318.69;;;15.86;100.00
29549;BME280;16487;53.094;8.800;2022-09-25T11:15:25;101322.72;;;15.58;100.00
29549;BME280;16487;53.094;8.800;2022-09-25T11:17:55;101322.88;;;15.33;100.00
29549;BME280;16487;53.094;8.800;2022-09-25T11:20:27;101331.19;;;15.06;100.00
29549;BME280;16487;53.094;8.800;2022-09-25T11:23:18;101324.59;;;15.00;100.00
29549;BME280;16487;53.094;8.800;2022-09-25T11:25:51;101328.66;;;14.99;100.00
29549;BME280;16487;53.094;8.800;2022-09-25T11:28:29;101327.34;;;14.91;100.00
29549;BME280;16487;53.094;8.800;2022-09-25T11:31:01;101334.22;;;14.68;100.00
29549;BME280;16487;53.094;8.800;2022-09-25T11:33:38;101331.06;;;14.88;100.00
29549;BME280;16487;53.094;8.800;2022-09-25T11:36:14;101339.09;;;14.99;100.00
29549;BME280;16487;53.094;8.800;2022-09-25T11:38:46;101333.47;;;14.99;100.00
29549;BME280;16487;53.094;8.800;2022-09-25T11:41:17;101340.69;;;14.78;100.00
29549;BME280;16487;53.094;8.800;2022-09-25T11:44:00;101336.34;;;14.86;100.00
29549;BME280;16487;53.094;8.800;2022-09-25T11:46:38;101342.81;;;14.96;100.00
29549;BME280;16487;53.094;8.800;2022-09-25T11:49:17;101330.22;;;15.00;100.00
29549;BME280;16487;53.094;8.800;2022-09-25T11:54:50;101324.91;;;15.33;100.00
29549;BME280;16487;53.094;8.800;2022-09-25T11:57:25;101318.91;;;15.43;100.00
29549;BME280;16487;53.094;8.800;2022-09-25T12:00:06;101326.66;;;15.39;100.00
29549;BME280;16487;53.094;8.800;2022-09-25T12:02:46;101317.66;;;15.44;100.00
29549;BME280;16487;53.094;8.800;2022-09-25T12:05:45;101306.19;;;15.69;100.00
29549;BME280;16487;53.094;8.800;2022-09-25T12:08:26;101295.59;;;15.91;100.00
29549;BME280;16487;53.094;8.800;2022-09-25T12:11:12;101292.19;;;16.05;100.00
29549;BME280;16487;53.094;8.800;2022-09-25T12:13:47;101282.81;;;16.36;100.00
29549;BME280;16487;53.094;8.800;2022-09-25T12:16:21;101276.41;;;16.53;100.00
29549;BME280;16487;53.094;8.800;2022-09-25T12:19:01;101279.28;;;16.95;100.00
29549;BME280;16487;53.094;8.800;2022-09-25T12:21:37;101277.63;;;17.21;100.00
29549;BME280;16487;53.094;8.800;2022-09-25T12:24:17;101272.91;;;17.27;100.00
29549;BME280;16487;53.094;8.800;2022-09-25T12:26:54;101271.41;;;17.08;100.00
29549;BME280;16487;53.094;8.800;2022-09-25T12:29:32;101262.59;;;17.24;100.00
29549;BME280;16487;53.094;8.800;2022-09-25T12:32:12;101250.28;;;17.92;100.00
29549;BME280;16487;53.094;8.800;2022-09-25T12:34:54;101248.38;;;18.95;100.00
29549;BME280;16487;53.094;8.800;2022-09-25T12:37:30;101245.28;;;19.42;100.00
29549;BME280;16487;53.094;8.800;2022-09-25T12:40:04;101250.81;;;18.58;100.00
29549;BME280;16487;53.094;8.800;2022-09-25T12:42:40;101243.00;;;18.39;100.00
29549;BME280;16487;53.094;8.800;2022-09-25T12:45:15;101249.84;;;17.38;100.00
29549;BME280;16487;53.094;8.800;2022-09-25T12:47:53;101251.19;;;16.77;100.00
29549;BME280;16487;53.094;8.800;2022-09-25T12:50:25;101246.53;;;16.56;100.00
29549;BME280;16487;53.094;8.800;2022-09-25T12:52:56;101242.47;;;16.39;100.00
29549;BME280;16487;53.094;8.800;2022-09-25T12:55:30;101246.88;;;16.31;100.00
29549;BME280;16487;53.094;8.800;2022-09-25T12:58:06;101249.06;;;16.36;100.00
29549;BME280;16487;53.094;8.800;2022-09-25T13:00:40;101239.53;;;16.15;100.00
29549;BME280;16487;53.094;8.800;2022-09-25T13:03:11;101243.91;;;16.07;100.00
29549;BME280;16487;53.094;8.800;2022-09-25T13:05:45;101237.19;;;16.14;100.00
29549;BME280;16487;53.094;8.800;2022-09-25T13:08:18;101236.25;;;16.17;100.00
29549;BME280;16487;53.094;8.800;2022-09-25T13:10:52;101237.19;;;16.14;100.00